Latest Weather Observations for Inner Beacon

IDQ60901

Issued at 1:01 am EST Saturday 1 October 2016 (issued every 10 minutes, with the page automatically refreshed every 10 minutes)

About weather observations | Map of Brisbane area stations | Latest observations for Brisbane area | Other Formats
Station Details ID: 040926 Name: INNER RECIPROCAL MARKER Lat: -27.26 Lon: 153.24 Height: 20.0 m
Data from the previous 72 hours. | See also: Recent months for locations in Queensland
Date/Time
EST
Temp
°C
App
Temp
°C
Dew
Point
°C
Rel
Hum
%
Delta-T
°C
Wind Press
QNH
hPa
Press
MSL
hPa
Rain since
9am
mm
Dir  Spd
km/h
Gust
km/h
Spd
kts
Gust
kts
01/01:00am - - - - - WNW 19 20 10 11 - - -
01/12:30am - - - - - WNW 22 24 12 13 - - -
01/12:00am - - - - - WNW 22 24 12 13 - - -
 
Date/Time
EST
Temp
°C
App
Temp
°C
Dew
Point
°C
Rel
Hum
%
Delta-T
°C
Wind Press
QNH
hPa
Press
MSL
hPa
Rain since
9am
mm
Dir  Spd
km/h
Gust
km/h
Spd
kts
Gust
kts
30/11:30pm - - - - - WNW 20 24 11 13 - - -
30/11:00pm - - - - - WNW 11 15 6 8 - - -
30/10:30pm - - - - - WNW 17 20 9 11 - - -
30/10:00pm - - - - - W 20 26 11 14 - - -
30/09:30pm - - - - - W 19 26 10 14 - - -
30/09:00pm - - - - - WSW 22 28 12 15 - - -
30/08:30pm - - - - - WSW 26 32 14 17 - - -
30/08:00pm - - - - - WSW 20 24 11 13 - - -
30/07:30pm - - - - - WSW 26 33 14 18 - - -
30/07:00pm - - - - - WSW 30 35 16 19 - - -
30/06:30pm - - - - - WSW 20 28 11 15 - - -
30/06:00pm - - - - - W 20 28 11 15 - - -
30/05:30pm - - - - - W 33 44 18 24 - - -
30/05:00pm - - - - - W 37 46 20 25 - - -
30/04:30pm - - - - - W 39 46 21 25 - - -
30/04:00pm - - - - - W 30 35 16 19 - - -
30/03:30pm - - - - - W 28 35 15 19 - - -
30/03:00pm - - - - - WNW 33 41 18 22 - - -
30/02:30pm - - - - - NW 37 44 20 24 - - -
30/02:00pm - - - - - NW 35 46 19 25 - - -
30/01:30pm - - - - - NW 35 46 19 25 - - -
30/01:00pm - - - - - NW 28 33 15 18 - - -
30/12:30pm - - - - - NW 32 41 17 22 - - -
30/12:00pm - - - - - NNW 24 28 13 15 - - -
30/11:30am - - - - - NW 24 30 13 16 - - -
30/11:00am - - - - - NW 32 43 17 23 - - -
30/10:30am - - - - - WNW 22 32 12 17 - - -
30/10:00am - - - - - WNW 17 20 9 11 - - -
30/09:30am - - - - - W 22 28 12 15 - - -
30/09:00am - - - - - WSW 28 32 15 17 - - -
30/08:30am - - - - - WSW 30 37 16 20 - - -
30/08:00am - - - - - WSW 32 35 17 19 - - -
30/07:30am - - - - - WSW 26 32 14 17 - - -
30/07:00am - - - - - WNW 17 20 9 11 - - -
30/06:30am - - - - - NW 19 20 10 11 - - -
30/06:00am - - - - - NW 15 17 8 9 - - -
30/05:30am - - - - - NW 19 22 10 12 - - -
30/05:00am - - - - - NNW 17 20 9 11 - - -
30/04:30am - - - - - NNW 24 28 13 15 - - -
30/04:00am - - - - - NNW 19 24 10 13 - - -
30/03:30am - - - - - NW 26 35 14 19 - - -
30/03:00am - - - - - NW 30 35 16 19 - - -
30/02:30am - - - - - NNW 33 39 18 21 - - -
30/02:00am - - - - - NNW 24 28 13 15 - - -
30/01:30am - - - - - NNW 26 33 14 18 - - -
30/01:00am - - - - - NNW 35 43 19 23 - - -
30/12:30am - - - - - NNW 37 41 20 22 - - -
30/12:00am - - - - - NNW 35 41 19 22 - - -
 
Date/Time
EST
Temp
°C
App
Temp
°C
Dew
Point
°C
Rel
Hum
%
Delta-T
°C
Wind Press
QNH
hPa
Press
MSL
hPa
Rain since
9am
mm
Dir  Spd
km/h
Gust
km/h
Spd
kts
Gust
kts
29/11:30pm - - - - - N 37 43 20 23 - - -
29/11:00pm - - - - - NNW 33 39 18 21 - - -
29/10:30pm - - - - - NNW 35 41 19 22 - - -
29/10:00pm - - - - - N 39 46 21 25 - - -
29/09:30pm - - - - - N 35 41 19 22 - - -
29/09:00pm - - - - - N 37 43 20 23 - - -
29/08:30pm - - - - - N 44 52 24 28 - - -
29/08:00pm - - - - - N 46 57 25 31 - - -
29/07:30pm - - - - - N 44 52 24 28 - - -
29/07:00pm - - - - - N 43 48 23 26 - - -
29/06:30pm - - - - - NNW 39 50 21 27 - - -
29/06:00pm - - - - - N 35 43 19 23 - - -
29/05:30pm - - - - - N 26 30 14 16 - - -
29/05:00pm - - - - - N 20 24 11 13 - - -
29/04:30pm - - - - - NW 19 20 10 11 - - -
29/04:00pm - - - - - NW 20 26 11 14 - - -
29/03:30pm - - - - - NNW 33 41 18 22 - - -
29/03:00pm - - - - - NNW 28 32 15 17 - - -
29/02:30pm - - - - - NNW 33 39 18 21 - - -
29/02:00pm - - - - - N 26 32 14 17 - - -
29/01:30pm - - - - - N 28 32 15 17 - - -
29/01:00pm - - - - - N 37 44 20 24 - - -
29/12:30pm - - - - - N 35 44 19 24 - - -
29/12:00pm - - - - - N 41 46 22 25 - - -
29/11:30am - - - - - N 39 46 21 25 - - -
29/11:00am - - - - - N 37 46 20 25 - - -
29/10:30am - - - - - N 28 35 15 19 - - -
29/10:00am - - - - - N 32 35 17 19 - - -
29/09:30am - - - - - N 33 37 18 20 - - -
29/09:00am - - - - - N 30 37 16 20 - - -
29/08:30am - - - - - N 26 30 14 16 - - -
29/08:00am - - - - - N 26 30 14 16 - - -
29/07:30am - - - - - N 28 32 15 17 - - -
29/07:00am - - - - - N 30 33 16 18 - - -
29/06:30am - - - - - N 28 32 15 17 - - -
29/06:00am - - - - - N 26 28 14 15 - - -
29/05:30am - - - - - N 28 32 15 17 - - -
29/05:00am - - - - - N 28 33 15 18 - - -
29/04:30am - - - - - N 26 30 14 16 - - -
29/04:00am - - - - - N 24 30 13 16 - - -
29/03:30am - - - - - N 22 28 12 15 - - -
29/03:00am - - - - - N 22 24 12 13 - - -
29/02:30am - - - - - N 15 17 8 9 - - -
29/02:00am - - - - - N 13 15 7 8 - - -
29/01:30am - - - - - NNE 15 17 8 9 - - -
29/01:00am - - - - - NE 13 15 7 8 - - -
29/12:30am - - - - - NE 15 17 8 9 - - -
29/12:00am - - - - - NE 15 19 8 10 - - -
 
Date/Time
EST
Temp
°C
App
Temp
°C
Dew
Point
°C
Rel
Hum
%
Delta-T
°C
Wind Press
QNH
hPa
Press
MSL
hPa
Rain since
9am
mm
Dir  Spd
km/h
Gust
km/h
Spd
kts
Gust
kts
28/11:30pm - - - - - NE 13 15 7 8 - - -
28/11:00pm - - - - - NE 17 19 9 10 - - -
28/10:30pm - - - - - NE 19 20 10 11 - - -
28/10:00pm - - - - - NE 19 20 10 11 - - -
28/09:30pm - - - - - NE 20 24 11 13 - - -
28/09:00pm - - - - - NE 20 22 11 12 - - -
28/08:30pm - - - - - NE 19 22 10 12 - - -
28/08:00pm - - - - - NE 19 22 10 12 - - -
28/07:30pm - - - - - NE 19 24 10 13 - - -
28/07:00pm - - - - - NE 17 19 9 10 - - -
28/06:30pm - - - - - NE 19 20 10 11 - - -
28/06:00pm - - - - - NE 22 24 12 13 - - -
28/05:30pm - - - - - ENE 24 30 13 16 - - -
28/05:00pm - - - - - ENE 26 32 14 17 - - -
28/04:30pm - - - - - ENE 28 33 15 18 - - -
28/04:00pm - - - - - ENE 24 28 13 15 - - -
28/03:30pm - - - - - E 24 30 13 16 - - -
28/03:00pm - - - - - E 26 30 14 16 - - -
28/02:30pm - - - - - E 28 33 15 18 - - -
28/02:00pm - - - - - E 28 32 15 17 - - -
28/01:30pm - - - - - E 26 30 14 16 - - -
28/01:00pm - - - - - E 26 30 14 16 - - -
28/12:30pm - - - - - ESE 20 24 11 13 - - -
28/12:00pm - - - - - E 13 15 7 8 - - -
28/11:30am - - - - - ENE 7 9 4 5 - - -
28/11:00am - - - - - NNE 7 11 4 6 - - -
28/10:30am - - - - - CALM 0 0 0 0 - - -
28/10:00am - - - - - WSW 4 6 2 3 - - -
28/09:30am - - - - - W 6 7 3 4 - - -
28/09:00am - - - - - W 9 11 5 6 - - -
28/08:30am - - - - - W 13 13 7 7 - - -
28/08:00am - - - - - WSW 9 13 5 7 - - -
28/07:30am - - - - - WSW 9 9 5 5 - - -
28/07:00am - - - - - SW 7 9 4 5 - - -
28/06:30am - - - - - WSW 11 13 6 7 - - -
28/06:00am - - - - - SW 13 15 7 8 - - -
28/05:30am - - - - - SSW 13 15 7 8 - - -
28/05:00am - - - - - W 17 19 9 10 - - -
28/04:30am - - - - - WNW 19 22 10 12 - - -
28/04:00am - - - - - WNW 22 26 12 14 - - -
28/03:30am - - - - - WNW 26 30 14 16 - - -
28/03:00am - - - - - WNW 22 26 12 14 - - -
28/02:30am - - - - - WNW 20 24 11 13 - - -
28/02:00am - - - - - WNW 15 19 8 10 - - -
28/01:30am - - - - - NW 13 15 7 8 - - -

Latest Capital City Observations: Canberra | Sydney | Melbourne | Brisbane | Adelaide | Perth | Hobart | Darwin

Other Formats:

Comma delimited format used in spreadsheet applications
http://www.bom.gov.au/fwo/IDQ60901/IDQ60901.94590.axf

JavaScript Object Notation format (JSON) in row-major order
http://www.bom.gov.au/fwo/IDQ60901/IDQ60901.94590.json